Terminal Aerodrome Forecast
Issued by NWS

Home | Current Version | Previous Version | Text Only | Print | Product List | Glossary On
Versions: 1 2 3 4 5 6 7 8 9 10 11 12
500
FTUS42 KTAE 242320
TAFVLD
TAF
KVLD 242320Z 2500/2524 11005KT P6SM FEW080 SCT250
     FM251500 13005KT P6SM FEW050=

USA.gov is the U.S. government's official web portal to all federal, state and local government web resources and services.